sensor_id;sensor_type;location;lat;lon;timestamp;pressure;altitude;pressure_sealevel;temperature;humidity
84714;BME280;74938;42.658;23.248;2024-03-02T00:00:07;93433.34;;;7.22;78.28
84714;BME280;74938;42.658;23.248;2024-03-02T00:02:42;93436.50;;;7.17;79.24
84714;BME280;74938;42.658;23.248;2024-03-02T00:05:07;93439.69;;;7.26;78.44
84714;BME280;74938;42.658;23.248;2024-03-02T00:07:36;93449.72;;;7.14;78.59
84714;BME280;74938;42.658;23.248;2024-03-02T00:10:08;93454.78;;;7.42;77.28
84714;BME280;74938;42.658;23.248;2024-03-02T00:12:36;93450.97;;;7.31;77.39
84714;BME280;74938;42.658;23.248;2024-03-02T00:17:55;93458.09;;;7.36;77.85
84714;BME280;74938;42.658;23.248;2024-03-02T00:20:23;93458.56;;;7.66;76.36
84714;BME280;74938;42.658;23.248;2024-03-02T00:22:50;93453.25;;;7.74;76.20
84714;BME280;74938;42.658;23.248;2024-03-02T00:25:16;93455.78;;;7.54;76.58
84714;BME280;74938;42.658;23.248;2024-03-02T00:27:41;93457.03;;;7.17;78.08
84714;BME280;74938;42.658;23.248;2024-03-02T00:33:07;93445.16;;;7.10;77.69
84714;BME280;74938;42.658;23.248;2024-03-02T00:35:33;93446.97;;;7.16;77.61
84714;BME280;74938;42.658;23.248;2024-03-02T00:38:01;93441.22;;;7.14;78.04
84714;BME280;74938;42.658;23.248;2024-03-02T00:40:29;93445.75;;;7.12;78.35
84714;BME280;74938;42.658;23.248;2024-03-02T00:42:56;93443.13;;;6.98;78.42
84714;BME280;74938;42.658;23.248;2024-03-02T00:45:21;93431.50;;;7.03;78.56
84714;BME280;74938;42.658;23.248;2024-03-02T00:47:46;93435.88;;;7.09;78.79
84714;BME280;74938;42.658;23.248;2024-03-02T00:50:13;93441.22;;;7.14;78.53
84714;BME280;74938;42.658;23.248;2024-03-02T00:52:40;93441.00;;;7.09;78.36
84714;BME280;74938;42.658;23.248;2024-03-02T00:55:05;93436.44;;;7.11;78.42
84714;BME280;74938;42.658;23.248;2024-03-02T00:57:33;93445.16;;;7.10;79.19
84714;BME280;74938;42.658;23.248;2024-03-02T00:59:59;93444.13;;;7.58;78.04
84714;BME280;74938;42.658;23.248;2024-03-02T01:02:25;93434.34;;;7.27;78.08
84714;BME280;74938;42.658;23.248;2024-03-02T01:04:50;93451.94;;;7.24;79.27
84714;BME280;74938;42.658;23.248;2024-03-02T01:07:15;93445.31;;;7.02;80.46
84714;BME280;74938;42.658;23.248;2024-03-02T01:09:41;93432.19;;;7.24;79.42
84714;BME280;74938;42.658;23.248;2024-03-02T01:12:06;93431.06;;;7.53;77.74
84714;BME280;74938;42.658;23.248;2024-03-02T01:14:32;93427.06;;;7.38;78.43
84714;BME280;74938;42.658;23.248;2024-03-02T01:16:57;93429.53;;;7.79;77.85
84714;BME280;74938;42.658;23.248;2024-03-02T01:19:23;93431.69;;;7.82;78.16
84714;BME280;74938;42.658;23.248;2024-03-02T01:21:48;93420.78;;;7.66;78.99
84714;BME280;74938;42.658;23.248;2024-03-02T01:24:15;93413.66;;;7.55;79.00
84714;BME280;74938;42.658;23.248;2024-03-02T01:26:42;93414.25;;;7.64;78.02
84714;BME280;74938;42.658;23.248;2024-03-02T01:29:07;93408.13;;;7.58;78.80
84714;BME280;74938;42.658;23.248;2024-03-02T01:31:33;93415.81;;;7.45;79.17
84714;BME280;74938;42.658;23.248;2024-03-02T01:33:58;93411.31;;;7.74;78.63
84714;BME280;74938;42.658;23.248;2024-03-02T01:36:23;93407.94;;;7.80;78.23
84714;BME280;74938;42.658;23.248;2024-03-02T01:38:49;93408.56;;;7.75;78.77
84714;BME280;74938;42.658;23.248;2024-03-02T01:41:15;93409.13;;;7.64;78.71
84714;BME280;74938;42.658;23.248;2024-03-02T01:43:40;93403.38;;;7.62;78.50
84714;BME280;74938;42.658;23.248;2024-03-02T01:46:05;93409.69;;;7.53;79.50
84714;BME280;74938;42.658;23.248;2024-03-02T01:48:31;93403.34;;;7.36;79.56
84714;BME280;74938;42.658;23.248;2024-03-02T01:50:56;93404.91;;;7.37;79.75
84714;BME280;74938;42.658;23.248;2024-03-02T01:53:22;93393.88;;;7.43;80.39
84714;BME280;74938;42.658;23.248;2024-03-02T01:55:48;93409.69;;;7.40;79.23
84714;BME280;74938;42.658;23.248;2024-03-02T01:58:14;93399.44;;;7.59;78.48
84714;BME280;74938;42.658;23.248;2024-03-02T02:00:39;93396.69;;;7.87;77.88
84714;BME280;74938;42.658;23.248;2024-03-02T02:03:05;93394.09;;;7.81;78.13
84714;BME280;74938;42.658;23.248;2024-03-02T02:05:31;93400.84;;;7.75;78.56
84714;BME280;74938;42.658;23.248;2024-03-02T02:07:57;93393.91;;;7.69;78.19
84714;BME280;74938;42.658;23.248;2024-03-02T02:10:23;93401.38;;;7.44;78.87
84714;BME280;74938;42.658;23.248;2024-03-02T02:12:49;93400.59;;;7.50;78.77
84714;BME280;74938;42.658;23.248;2024-03-02T02:15:30;93391.50;;;7.41;79.19
84714;BME280;74938;42.658;23.248;2024-03-02T02:17:56;93402.53;;;7.35;79.30
84714;BME280;74938;42.658;23.248;2024-03-02T02:20:22;93400.94;;;7.27;80.29
84714;BME280;74938;42.658;23.248;2024-03-02T02:23:02;93392.31;;;7.75;78.06
84714;BME280;74938;42.658;23.248;2024-03-02T02:25:28;93393.47;;;7.52;78.96
84714;BME280;74938;42.658;23.248;2024-03-02T02:27:55;93402.19;;;7.51;78.67
84714;BME280;74938;42.658;23.248;2024-03-02T02:30:28;93395.44;;;7.50;79.11
84714;BME280;74938;42.658;23.248;2024-03-02T02:32:54;93402.13;;;7.31;78.73
84714;BME280;74938;42.658;23.248;2024-03-02T02:35:19;93397.78;;;7.25;79.88
84714;BME280;74938;42.658;23.248;2024-03-02T02:37:46;93395.28;;;7.85;78.77
84714;BME280;74938;42.658;23.248;2024-03-02T02:40:12;93398.34;;;7.21;80.10
84714;BME280;74938;42.658;23.248;2024-03-02T02:42:38;93391.72;;;7.66;79.24
84714;BME280;74938;42.658;23.248;2024-03-02T02:45:05;93399.44;;;7.66;78.18
84714;BME280;74938;42.658;23.248;2024-03-02T02:47:31;93401.38;;;7.51;78.70
84714;BME280;74938;42.658;23.248;2024-03-02T02:49:58;93402.13;;;7.31;79.36
84714;BME280;74938;42.658;23.248;2024-03-02T02:52:24;93406.50;;;7.38;79.07
84714;BME280;74938;42.658;23.248;2024-03-02T02:54:49;93401.16;;;7.46;79.01
84714;BME280;74938;42.658;23.248;2024-03-02T02:57:15;93396.19;;;7.31;79.27
84714;BME280;74938;42.658;23.248;2024-03-02T02:59:40;93404.16;;;7.49;79.95
84714;BME280;74938;42.658;23.248;2024-03-02T03:02:05;93403.91;;;7.24;80.89
84714;BME280;74938;42.658;23.248;2024-03-02T03:04:31;93400.06;;;7.01;81.95
84714;BME280;74938;42.658;23.248;2024-03-02T03:06:57;93401.16;;;7.26;80.45
84714;BME280;74938;42.658;23.248;2024-03-02T03:09:22;93399.81;;;7.56;78.86
84714;BME280;74938;42.658;23.248;2024-03-02T03:11:47;93402.13;;;7.25;80.38
84714;BME280;74938;42.658;23.248;2024-03-02T03:14:13;93402.84;;;7.12;81.21
84714;BME280;74938;42.658;23.248;2024-03-02T03:16:38;93402.06;;;7.12;80.95
84714;BME280;74938;42.658;23.248;2024-03-02T03:19:03;93410.16;;;7.02;81.50
84714;BME280;74938;42.658;23.248;2024-03-02T03:21:29;93406.81;;;7.08;81.87
84714;BME280;74938;42.658;23.248;2024-03-02T03:23:54;93406.81;;;7.15;81.10
84714;BME280;74938;42.658;23.248;2024-03-02T03:26:20;93403.28;;;7.09;81.02
84714;BME280;74938;42.658;23.248;2024-03-02T03:28:45;93397.53;;;7.07;81.08
84714;BME280;74938;42.658;23.248;2024-03-02T03:31:11;93396.13;;;7.11;80.78
84714;BME280;74938;42.658;23.248;2024-03-02T03:33:36;93400.50;;;7.17;80.86
84714;BME280;74938;42.658;23.248;2024-03-02T03:36:02;93396.13;;;7.05;81.40
84714;BME280;74938;42.658;23.248;2024-03-02T03:38:28;93401.66;;;7.02;81.18
84714;BME280;74938;42.658;23.248;2024-03-02T03:40:54;93405.56;;;6.97;81.64
84714;BME280;74938;42.658;23.248;2024-03-02T03:43:20;93402.06;;;7.05;81.08
84714;BME280;74938;42.658;23.248;2024-03-02T03:45:45;93411.31;;;6.99;81.46
84714;BME280;74938;42.658;23.248;2024-03-02T03:48:11;93407.72;;;6.87;83.15
84714;BME280;74938;42.658;23.248;2024-03-02T03:50:36;93392.84;;;6.76;83.36
84714;BME280;74938;42.658;23.248;2024-03-02T03:53:02;93407.66;;;6.74;83.10
84714;BME280;74938;42.658;23.248;2024-03-02T03:55:28;93400.63;;;6.89;83.29
84714;BME280;74938;42.658;23.248;2024-03-02T03:57:53;93400.94;;;6.73;83.57
84714;BME280;74938;42.658;23.248;2024-03-02T04:00:19;93401.69;;;6.67;83.44
84714;BME280;74938;42.658;23.248;2024-03-02T04:02:44;93409.13;;;6.90;83.15
84714;BME280;74938;42.658;23.248;2024-03-02T04:05:09;93403.81;;;6.98;82.74
84714;BME280;74938;42.658;23.248;2024-03-02T04:07:36;93405.31;;;6.79;82.52
84714;BME280;74938;42.658;23.248;2024-03-02T04:10:06;93395.56;;;6.68;82.96
84714;BME280;74938;42.658;23.248;2024-03-02T04:12:33;93404.63;;;6.57;83.61
84714;BME280;74938;42.658;23.248;2024-03-02T04:14:58;93401.03;;;6.58;84.06
84714;BME280;74938;42.658;23.248;2024-03-02T04:17:24;93398.38;;;6.80;83.34
84714;BME280;74938;42.658;23.248;2024-03-02T04:19:49;93401.97;;;6.85;83.13
84714;BME280;74938;42.658;23.248;2024-03-02T04:22:15;93393.84;;;6.75;82.70
84714;BME280;74938;42.658;23.248;2024-03-02T04:24:40;93398.19;;;6.75;82.89
84714;BME280;74938;42.658;23.248;2024-03-02T04:27:05;93405.09;;;6.74;83.90
84714;BME280;74938;42.658;23.248;2024-03-02T04:29:31;93407.84;;;7.20;82.88
84714;BME280;74938;42.658;23.248;2024-03-02T04:31:56;93404.34;;;7.48;81.55
84714;BME280;74938;42.658;23.248;2024-03-02T04:34:21;93403.75;;;7.46;81.03
84714;BME280;74938;42.658;23.248;2024-03-02T04:36:47;93401.75;;;7.34;81.76
84714;BME280;74938;42.658;23.248;2024-03-02T04:39:12;93406.47;;;7.24;82.19
84714;BME280;74938;42.658;23.248;2024-03-02T04:41:38;93401.69;;;7.08;82.66
84714;BME280;74938;42.658;23.248;2024-03-02T04:44:03;93408.47;;;7.36;81.98
84714;BME280;74938;42.658;23.248;2024-03-02T04:46:28;93405.50;;;7.25;81.72
84714;BME280;74938;42.658;23.248;2024-03-02T04:48:54;93411.25;;;7.47;81.17
84714;BME280;74938;42.658;23.248;2024-03-02T04:51:22;93406.94;;;7.54;81.21
84714;BME280;74938;42.658;23.248;2024-03-02T04:53:47;93415.66;;;7.66;80.39
84714;BME280;74938;42.658;23.248;2024-03-02T04:56:13;93409.88;;;7.51;81.14
84714;BME280;74938;42.658;23.248;2024-03-02T04:58:56;93413.88;;;7.60;80.96
84714;BME280;74938;42.658;23.248;2024-03-02T05:01:22;93418.94;;;7.34;81.16
84714;BME280;74938;42.658;23.248;2024-03-02T05:03:47;93419.31;;;7.24;81.67
84714;BME280;74938;42.658;23.248;2024-03-02T05:06:12;93414.25;;;7.57;81.12
84714;BME280;74938;42.658;23.248;2024-03-02T05:08:38;93408.75;;;7.60;80.44
84714;BME280;74938;42.658;23.248;2024-03-02T05:11:03;93420.59;;;7.61;80.86
84714;BME280;74938;42.658;23.248;2024-03-02T05:13:47;93425.91;;;7.40;81.11
84714;BME280;74938;42.658;23.248;2024-03-02T05:16:12;93420.47;;;7.09;82.88
84714;BME280;74938;42.658;23.248;2024-03-02T05:18:38;93416.31;;;7.14;82.97
84714;BME280;74938;42.658;23.248;2024-03-02T05:21:03;93427.94;;;7.04;83.43
84714;BME280;74938;42.658;23.248;2024-03-02T05:23:29;93430.31;;;7.12;83.36
84714;BME280;74938;42.658;23.248;2024-03-02T05:25:54;93433.66;;;6.99;84.20
84714;BME280;74938;42.658;23.248;2024-03-02T05:28:19;93429.84;;;7.36;83.10
84714;BME280;74938;42.658;23.248;2024-03-02T05:30:45;93440.50;;;7.33;82.16
84714;BME280;74938;42.658;23.248;2024-03-02T05:33:10;93432.56;;;6.80;84.06
84714;BME280;74938;42.658;23.248;2024-03-02T05:35:35;93439.22;;;6.68;85.24
84714;BME280;74938;42.658;23.248;2024-03-02T05:38:01;93445.88;;;6.56;86.03
84714;BME280;74938;42.658;23.248;2024-03-02T05:40:26;93450.78;;;6.51;87.32
84714;BME280;74938;42.658;23.248;2024-03-02T05:42:51;93447.03;;;6.53;86.99
84714;BME280;74938;42.658;23.248;2024-03-02T05:45:17;93452.38;;;6.52;87.58
84714;BME280;74938;42.658;23.248;2024-03-02T05:47:42;93452.97;;;6.54;86.24
84714;BME280;74938;42.658;23.248;2024-03-02T05:50:07;93459.53;;;6.63;85.82
84714;BME280;74938;42.658;23.248;2024-03-02T05:52:33;93462.16;;;6.76;86.38
84714;BME280;74938;42.658;23.248;2024-03-02T05:54:58;93450.13;;;6.77;86.15
84714;BME280;74938;42.658;23.248;2024-03-02T05:57:24;93458.03;;;6.75;86.64
84714;BME280;74938;42.658;23.248;2024-03-02T06:00:09;93458.72;;;6.90;84.97
84714;BME280;74938;42.658;23.248;2024-03-02T06:02:34;93455.41;;;7.03;85.12
84714;BME280;74938;42.658;23.248;2024-03-02T06:05:03;93458.28;;;6.87;84.45
84714;BME280;74938;42.658;23.248;2024-03-02T06:07:29;93452.19;;;6.88;85.24
84714;BME280;74938;42.658;23.248;2024-03-02T06:09:55;93457.28;;;6.81;85.37
84714;BME280;74938;42.658;23.248;2024-03-02T06:12:20;93458.91;;;6.89;85.16
84714;BME280;74938;42.658;23.248;2024-03-02T06:14:45;93451.63;;;6.99;84.27
84714;BME280;74938;42.658;23.248;2024-03-02T06:17:11;93463.69;;;6.98;84.10
84714;BME280;74938;42.658;23.248;2024-03-02T06:19:36;93456.53;;;6.87;84.84
84714;BME280;74938;42.658;23.248;2024-03-02T06:22:01;93462.16;;;6.76;85.89
84714;BME280;74938;42.658;23.248;2024-03-02T06:24:27;93457.31;;;6.94;84.76
84714;BME280;74938;42.658;23.248;2024-03-02T06:26:52;93455.84;;;7.13;84.86
84714;BME280;74938;42.658;23.248;2024-03-02T06:29:17;93460.19;;;7.13;83.74
84714;BME280;74938;42.658;23.248;2024-03-02T06:31:43;93460.06;;;6.86;84.70
84714;BME280;74938;42.658;23.248;2024-03-02T06:34:08;93463.13;;;6.69;86.68
84714;BME280;74938;42.658;23.248;2024-03-02T06:36:34;93470.28;;;6.73;87.10
84714;BME280;74938;42.658;23.248;2024-03-02T06:38:59;93475.72;;;6.63;87.15
84714;BME280;74938;42.658;23.248;2024-03-02T06:41:25;93474.91;;;6.56;86.43
84714;BME280;74938;42.658;23.248;2024-03-02T06:43:51;93469.00;;;6.62;86.57
84714;BME280;74938;42.658;23.248;2024-03-02T06:46:24;93470.56;;;6.57;87.72
84714;BME280;74938;42.658;23.248;2024-03-02T06:48:50;93473.81;;;6.72;87.67
84714;BME280;74938;42.658;23.248;2024-03-02T06:51:15;93484.50;;;6.76;86.82
84714;BME280;74938;42.658;23.248;2024-03-02T06:53:41;93482.28;;;6.66;86.69
84714;BME280;74938;42.658;23.248;2024-03-02T06:56:07;93481.00;;;6.83;87.48
84714;BME280;74938;42.658;23.248;2024-03-02T06:58:32;93474.91;;;6.91;86.78
84714;BME280;74938;42.658;23.248;2024-03-02T07:00:58;93480.91;;;7.05;86.79
84714;BME280;74938;42.658;23.248;2024-03-02T07:03:25;93484.22;;;6.98;85.93
84714;BME280;74938;42.658;23.248;2024-03-02T07:05:51;93484.22;;;6.98;86.29
84714;BME280;74938;42.658;23.248;2024-03-02T07:08:16;93488.94;;;6.88;86.23
84714;BME280;74938;42.658;23.248;2024-03-02T07:10:41;93490.47;;;6.83;87.31
84714;BME280;74938;42.658;23.248;2024-03-02T07:13:07;93486.75;;;6.85;86.69
84714;BME280;74938;42.658;23.248;2024-03-02T07:15:32;93489.25;;;6.79;86.93
84714;BME280;74938;42.658;23.248;2024-03-02T07:18:16;93488.56;;;6.91;84.99
84714;BME280;74938;42.658;23.248;2024-03-02T07:20:41;93488.31;;;7.21;85.44
84714;BME280;74938;42.658;23.248;2024-03-02T07:23:07;93481.94;;;7.17;84.99
84714;BME280;74938;42.658;23.248;2024-03-02T07:25:32;93485.06;;;7.06;84.87
84714;BME280;74938;42.658;23.248;2024-03-02T07:27:58;93491.78;;;7.07;86.14
84714;BME280;74938;42.658;23.248;2024-03-02T07:30:23;93490.88;;;7.21;84.80
84714;BME280;74938;42.658;23.248;2024-03-02T07:32:50;93495.34;;;7.06;84.62
84714;BME280;74938;42.658;23.248;2024-03-02T07:35:16;93487.09;;;7.17;84.95
84714;BME280;74938;42.658;23.248;2024-03-02T07:37:42;93494.75;;;7.04;85.76
84714;BME280;74938;42.658;23.248;2024-03-02T07:40:08;93502.22;;;6.98;86.43
84714;BME280;74938;42.658;23.248;2024-03-02T07:42:38;93498.91;;;7.52;84.67
84714;BME280;74938;42.658;23.248;2024-03-02T07:45:05;93485.16;;;7.32;84.76
84714;BME280;74938;42.658;23.248;2024-03-02T07:47:32;93502.44;;;7.51;85.61
84714;BME280;74938;42.658;23.248;2024-03-02T07:49:57;93500.94;;;7.70;84.57
84714;BME280;74938;42.658;23.248;2024-03-02T07:52:23;93500.09;;;7.56;84.32
84714;BME280;74938;42.658;23.248;2024-03-02T07:54:48;93500.28;;;7.55;83.34
84714;BME280;74938;42.658;23.248;2024-03-02T07:57:13;93508.22;;;7.60;83.60
84714;BME280;74938;42.658;23.248;2024-03-02T07:59:39;93511.34;;;7.49;83.62
84714;BME280;74938;42.658;23.248;2024-03-02T08:02:04;93504.91;;;7.73;83.49
84714;BME280;74938;42.658;23.248;2024-03-02T08:04:29;93504.06;;;7.65;83.92
84714;BME280;74938;42.658;23.248;2024-03-02T08:06:55;93504.84;;;7.53;84.22
84714;BME280;74938;42.658;23.248;2024-03-02T08:09:20;93511.25;;;7.29;83.86
84714;BME280;74938;42.658;23.248;2024-03-02T08:11:46;93513.88;;;7.36;83.89
84714;BME280;74938;42.658;23.248;2024-03-02T08:14:11;93501.00;;;7.36;84.40
84714;BME280;74938;42.658;23.248;2024-03-02T08:16:36;93509.00;;;7.54;83.76
84714;BME280;74938;42.658;23.248;2024-03-02T08:19:02;93521.22;;;7.45;83.49
84714;BME280;74938;42.658;23.248;2024-03-02T08:21:28;93524.00;;;7.44;85.31
84714;BME280;74938;42.658;23.248;2024-03-02T08:23:56;93510.16;;;7.51;84.59
84714;BME280;74938;42.658;23.248;2024-03-02T08:26:22;93519.00;;;7.90;82.28
84714;BME280;74938;42.658;23.248;2024-03-02T08:28:48;93517.31;;;7.56;83.41
84714;BME280;74938;42.658;23.248;2024-03-02T08:31:13;93515.34;;;7.64;83.16
84714;BME280;74938;42.658;23.248;2024-03-02T08:33:39;93511.47;;;7.88;83.06
84714;BME280;74938;42.658;23.248;2024-03-02T08:36:05;93508.09;;;7.88;84.02
84714;BME280;74938;42.658;23.248;2024-03-02T08:38:31;93511.91;;;8.12;83.82
84714;BME280;74938;42.658;23.248;2024-03-02T08:40:57;93515.81;;;7.88;83.18
84714;BME280;74938;42.658;23.248;2024-03-02T08:43:22;93517.00;;;7.79;83.36
84714;BME280;74938;42.658;23.248;2024-03-02T08:45:48;93515.84;;;8.01;83.33
84714;BME280;74938;42.658;23.248;2024-03-02T08:48:13;93516.44;;;7.96;82.65
84714;BME280;74938;42.658;23.248;2024-03-02T08:50:39;93519.22;;;7.95;82.94
84714;BME280;74938;42.658;23.248;2024-03-02T08:53:04;93517.41;;;8.02;81.87
84714;BME280;74938;42.658;23.248;2024-03-02T08:55:30;93513.28;;;8.08;82.00
84714;BME280;74938;42.658;23.248;2024-03-02T08:57:55;93513.09;;;8.09;80.98
84714;BME280;74938;42.658;23.248;2024-03-02T09:00:21;93519.22;;;8.15;81.29
84714;BME280;74938;42.658;23.248;2024-03-02T09:02:47;93518.06;;;8.24;80.83
84714;BME280;74938;42.658;23.248;2024-03-02T09:05:13;93515.44;;;7.97;81.09
84714;BME280;74938;42.658;23.248;2024-03-02T09:07:38;93514.69;;;8.10;81.64
84714;BME280;74938;42.658;23.248;2024-03-02T09:10:07;93526.47;;;7.72;82.26
84714;BME280;74938;42.658;23.248;2024-03-02T09:12:33;93521.34;;;7.85;80.28
84714;BME280;74938;42.658;23.248;2024-03-02T09:15:00;93527.50;;;7.90;81.60
84714;BME280;74938;42.658;23.248;2024-03-02T09:17:26;93530.25;;;7.89;81.89
84714;BME280;74938;42.658;23.248;2024-03-02T09:19:51;93535.03;;;7.98;81.41
84714;BME280;74938;42.658;23.248;2024-03-02T09:22:18;93541.94;;;7.98;81.33
84714;BME280;74938;42.658;23.248;2024-03-02T09:24:43;93534.84;;;8.07;80.76
84714;BME280;74938;42.658;23.248;2024-03-02T09:27:09;93547.34;;;8.16;81.73
84714;BME280;74938;42.658;23.248;2024-03-02T09:29:34;93539.63;;;8.16;81.18
84714;BME280;74938;42.658;23.248;2024-03-02T09:31:59;93537.25;;;8.21;81.29
84714;BME280;74938;42.658;23.248;2024-03-02T09:34:25;93549.53;;;8.26;81.06
84714;BME280;74938;42.658;23.248;2024-03-02T09:36:51;93534.28;;;8.24;81.94
84714;BME280;74938;42.658;23.248;2024-03-02T09:39:16;93532.19;;;8.48;80.58
84714;BME280;74938;42.658;23.248;2024-03-02T09:41:43;93544.63;;;8.51;78.64
84714;BME280;74938;42.658;23.248;2024-03-02T09:44:09;93547.94;;;8.31;79.57
84714;BME280;74938;42.658;23.248;2024-03-02T09:46:34;93541.81;;;8.26;80.11
84714;BME280;74938;42.658;23.248;2024-03-02T09:49:02;93539.88;;;8.34;79.77
84714;BME280;74938;42.658;23.248;2024-03-02T09:51:27;93537.72;;;8.58;78.69
84714;BME280;74938;42.658;23.248;2024-03-02T09:53:54;93534.13;;;8.32;77.95
84714;BME280;74938;42.658;23.248;2024-03-02T09:56:21;93536.09;;;8.30;79.09
84714;BME280;74938;42.658;23.248;2024-03-02T09:58:46;93544.81;;;8.36;79.48
84714;BME280;74938;42.658;23.248;2024-03-02T10:01:12;93545.44;;;8.38;78.84
84714;BME280;74938;42.658;23.248;2024-03-02T10:03:37;93544.81;;;8.49;79.20
84714;BME280;74938;42.658;23.248;2024-03-02T10:06:24;93542.25;;;8.43;79.14
84714;BME280;74938;42.658;23.248;2024-03-02T10:08:50;93534.13;;;8.39;79.76
84714;BME280;74938;42.658;23.248;2024-03-02T10:11:34;93539.88;;;8.34;80.29
84714;BME280;74938;42.658;23.248;2024-03-02T10:14:12;93544.97;;;8.08;81.67
84714;BME280;74938;42.658;23.248;2024-03-02T10:16:43;93548.72;;;8.19;81.69
84714;BME280;74938;42.658;23.248;2024-03-02T10:21:40;93535.69;;;8.27;81.60
84714;BME280;74938;42.658;23.248;2024-03-02T10:24:09;93534.34;;;8.44;79.67
84714;BME280;74938;42.658;23.248;2024-03-02T10:26:34;93537.91;;;8.43;78.87
84714;BME280;74938;42.658;23.248;2024-03-02T10:28:59;93543.84;;;8.44;79.76
84714;BME280;74938;42.658;23.248;2024-03-02T10:31:26;93533.72;;;8.49;79.28
84714;BME280;74938;42.658;23.248;2024-03-02T10:33:54;93533.34;;;8.38;79.13
84714;BME280;74938;42.658;23.248;2024-03-02T10:36:20;93536.13;;;8.63;79.45
84714;BME280;74938;42.658;23.248;2024-03-02T10:38:46;93533.75;;;8.62;80.38
84714;BME280;74938;42.658;23.248;2024-03-02T10:41:17;93534.94;;;8.66;78.33
84714;BME280;74938;42.658;23.248;2024-03-02T10:43:43;93535.53;;;8.68;79.65
84714;BME280;74938;42.658;23.248;2024-03-02T10:46:10;93530.97;;;8.63;81.15
84714;BME280;74938;42.658;23.248;2024-03-02T10:48:36;93532.56;;;8.71;80.12
84714;BME280;74938;42.658;23.248;2024-03-02T10:51:04;93520.66;;;8.57;80.72
84714;BME280;74938;42.658;23.248;2024-03-02T10:53:30;93515.72;;;8.55;80.09
84714;BME280;74938;42.658;23.248;2024-03-02T10:55:58;93524.63;;;8.59;81.95
84714;BME280;74938;42.658;23.248;2024-03-02T10:58:32;93525.63;;;8.52;80.75
84714;BME280;74938;42.658;23.248;2024-03-02T11:01:03;93521.66;;;8.49;82.37
84714;BME280;74938;42.658;23.248;2024-03-02T11:03:33;93524.63;;;8.53;81.34
84714;BME280;74938;42.658;23.248;2024-03-02T11:06:00;93518.28;;;8.49;81.49
84714;BME280;74938;42.658;23.248;2024-03-02T11:08:33;93516.91;;;8.53;80.06
84714;BME280;74938;42.658;23.248;2024-03-02T11:11:15;93523.03;;;8.38;79.23
84714;BME280;74938;42.658;23.248;2024-03-02T11:13:49;93515.50;;;8.37;82.13
84714;BME280;74938;42.658;23.248;2024-03-02T11:16:27;93522.19;;;8.31;81.80
84714;BME280;74938;42.658;23.248;2024-03-02T11:18:57;93516.72;;;8.48;80.83
84714;BME280;74938;42.658;23.248;2024-03-02T11:21:24;93514.34;;;8.59;81.41
84714;BME280;74938;42.658;23.248;2024-03-02T11:23:50;93515.50;;;8.50;80.35
84714;BME280;74938;42.658;23.248;2024-03-02T11:26:19;93514.34;;;8.46;81.34
84714;BME280;74938;42.658;23.248;2024-03-02T11:28:45;93513.56;;;8.65;81.82
84714;BME280;74938;42.658;23.248;2024-03-02T11:31:11;93512.31;;;8.94;78.90
84714;BME280;74938;42.658;23.248;2024-03-02T11:33:36;93514.69;;;8.89;78.09
84714;BME280;74938;42.658;23.248;2024-03-02T11:36:02;93513.13;;;8.75;79.53
84714;BME280;74938;42.658;23.248;2024-03-02T11:38:28;93511.56;;;8.81;79.29
84714;BME280;74938;42.658;23.248;2024-03-02T11:40:54;93506.59;;;8.72;80.22
84714;BME280;74938;42.658;23.248;2024-03-02T11:43:20;93507.00;;;8.56;82.65
84714;BME280;74938;42.658;23.248;2024-03-02T11:45:46;93516.13;;;8.59;80.87
84714;BME280;74938;42.658;23.248;2024-03-02T11:48:14;93509.38;;;8.64;81.81
84714;BME280;74938;42.658;23.248;2024-03-02T11:50:47;93510.19;;;8.45;81.80
84714;BME280;74938;42.658;23.248;2024-03-02T11:53:14;93515.13;;;8.47;82.28
84714;BME280;74938;42.658;23.248;2024-03-02T11:55:40;93511.97;;;8.58;81.12
84714;BME280;74938;42.658;23.248;2024-03-02T11:58:15;93517.50;;;8.35;82.19
84714;BME280;74938;42.658;23.248;2024-03-02T12:00:55;93511.53;;;8.34;82.08
84714;BME280;74938;42.658;23.248;2024-03-02T12:03:25;93507.97;;;8.29;81.93
84714;BME280;74938;42.658;23.248;2024-03-02T12:05:52;93514.13;;;8.34;83.15
84714;BME280;74938;42.658;23.248;2024-03-02T12:08:18;93515.53;;;8.57;82.26
84714;BME280;74938;42.658;23.248;2024-03-02T12:10:55;93510.94;;;8.32;81.79
84714;BME280;74938;42.658;23.248;2024-03-02T12:13:21;93511.16;;;8.37;82.16
84714;BME280;74938;42.658;23.248;2024-03-02T12:15:47;93512.34;;;8.42;81.98
84714;BME280;74938;42.658;23.248;2024-03-02T12:18:13;93516.72;;;8.48;81.60
84714;BME280;74938;42.658;23.248;2024-03-02T12:20:38;93509.72;;;8.22;81.65
84714;BME280;74938;42.658;23.248;2024-03-02T12:23:04;93507.19;;;8.28;81.87
84714;BME280;74938;42.658;23.248;2024-03-02T12:25:30;93514.72;;;8.30;81.58
84714;BME280;74938;42.658;23.248;2024-03-02T12:27:58;93506.81;;;8.45;81.45
84714;BME280;74938;42.658;23.248;2024-03-02T12:30:27;93509.38;;;8.45;80.94
84714;BME280;74938;42.658;23.248;2024-03-02T12:32:54;93512.56;;;8.60;81.23
84714;BME280;74938;42.658;23.248;2024-03-02T12:35:19;93507.78;;;8.70;81.54
84714;BME280;74938;42.658;23.248;2024-03-02T12:37:50;93507.19;;;8.75;81.96
84714;BME280;74938;42.658;23.248;2024-03-02T12:40:17;93492.53;;;8.62;78.74
84714;BME280;74938;42.658;23.248;2024-03-02T12:42:44;93509.56;;;8.69;78.94
84714;BME280;74938;42.658;23.248;2024-03-02T12:45:09;93506.78;;;8.51;80.81
84714;BME280;74938;42.658;23.248;2024-03-02T12:47:36;93515.13;;;8.60;80.90
84714;BME280;74938;42.658;23.248;2024-03-02T12:50:02;93514.31;;;8.33;81.40
84714;BME280;74938;42.658;23.248;2024-03-02T12:52:28;93512.94;;;8.44;81.61
84714;BME280;74938;42.658;23.248;2024-03-02T12:54:53;93510.75;;;8.54;80.44
84714;BME280;74938;42.658;23.248;2024-03-02T12:57:25;93512.94;;;8.57;81.03
84714;BME280;74938;42.658;23.248;2024-03-02T12:59:52;93508.38;;;8.79;79.65
84714;BME280;74938;42.658;23.248;2024-03-02T13:02:18;93517.28;;;8.76;80.49
84714;BME280;74938;42.658;23.248;2024-03-02T13:04:43;93515.13;;;8.73;80.62